Список аэропортов
Фактическая погода:

23 февраля, 17:50
Температура: +16°C (+15.4*)
Ветер: южный 4 м/с
Давление: *774 мм
не опр.
Время (МСК)Темп. СВетерВлажностьДавлениеОблачностьОсадки
15:00+14Ю, 4 м/с65%1034 гПаясно
16:00+14Ю, 4 м/с62%1034 гПаясно
17:00+15Ю, 5 м/с60%1034 гПаясно
18:00+15Ю, 5 м/с58%1034 гПаясно
19:00+14Ю, 5 м/с58%1034 гПаясно
20:00+13Ю, 3 м/с60%1034 гПаясно
21:00+11ЮВ, 3 м/с71%1034 гПаясно
22:00+10ЮВ, 2 м/с80%1034 гПаясно
23:00+7Штиль 91%1034 гПамалооблачно
24 февраля
00:00+7СВ, 1 м/с92%1035 гПас прояснениями
01:00+6СВ, 2 м/с92%1035 гПаоблачно
02:00+6СВ, 2 м/с94%1036 гПас прояснениями
03:00+5В, 2 м/с96%1036 гПас прояснениями
04:00+4СВ, 2 м/с98%1036 гПаоблачно
05:00+4СВ, 2 м/с98%1035 гПаоблачно
06:00+4СВ, 2 м/с99%1035 гПаоблачно
07:00+3СВ, 2 м/с99%1035 гПаоблачно
08:00+3СВ, 2 м/с99%1035 гПаоблачно
09:00+3СВ, 2 м/с100%1035 гПаоблачно
10:00+2С, 2 м/с100%1036 гПаоблачно
11:00+2СВ, 2 м/с99%1036 гПаоблачно
12:00+3СВ, 1 м/с92%1036 гПаясно
13:00+6В, 1 м/с81%1036 гПаясно
14:00+8В, 2 м/с71%1036 гПаясно
15:00+10ЮВ, 3 м/с63%1036 гПаясно
16:00+11ЮВ, 2 м/с57%1036 гПаясно
17:00+13ЮВ, 2 м/с54%1036 гПаясно
18:00+14ЮВ, 2 м/с52%1035 гПаясно
19:00+13ЮВ, 1 м/с53%1035 гПаясно
20:00+12В, 1 м/с59%1036 гПаясно
21:00+10В, 3 м/с64%1036 гПаясно
22:00+8В, 3 м/с71%1036 гПаясно
23:00+6ЮВ, 1 м/с82%1036 гПас прояснениями
25 февраля
00:00+5В, 2 м/с81%1036 гПамалооблачно
01:00+4В, 2 м/с86%1036 гПамалооблачно
02:00+3В, 2 м/с90%1036 гПаоблачно
03:00+2В, 2 м/с91%1036 гПаоблачно
04:00+2С, 2 м/с96%1037 гПаоблачно
05:00+1С, 2 м/с96%1037 гПаоблачно
06:00+1СВ, 2 м/с98%1037 гПас прояснениями
07:000В, 2 м/с99%1037 гПас прояснениями
08:000В, 1 м/с99%1036 гПаоблачно
09:00-0СВ, 2 м/с99%1036 гПаоблачно
10:00-0С, 1 м/с99%1037 гПаоблачно
11:00-0С, 2 м/с99%1037 гПаоблачно
12:00+1СВ, 1 м/с93%1037 гПамалооблачно
13:00+4ЮВ, 1 м/с84%1037 гПаясно
14:00+8ЮВ, 2 м/с76%1037 гПаясно
15:00+11Ю, 1 м/с69%1037 гПаясно